createdAt,value
2022-08-12T00:00:17.579Z,21.30
2022-08-12T00:03:03.204Z,21.20
2022-08-12T00:06:03.865Z,21.10
2022-08-12T00:08:53.735Z,21.10
2022-08-12T00:11:39.743Z,21.00
2022-08-12T00:14:25.127Z,21.00
2022-08-12T00:17:11.489Z,21.00
2022-08-12T00:19:56.921Z,20.90
2022-08-12T00:22:43.132Z,20.90
2022-08-12T00:26:05.507Z,20.90
2022-08-12T00:28:36.297Z,20.80
2022-08-12T00:31:21.773Z,20.80
2022-08-12T00:34:07.106Z,20.70
2022-08-12T00:36:52.769Z,20.70
2022-08-12T00:39:39.404Z,20.70
2022-08-12T00:42:11.787Z,20.60
2022-08-12T00:44:45.528Z,20.50
2022-08-12T00:47:25.089Z,20.50
2022-08-12T00:49:54.852Z,20.50
2022-08-12T00:52:24.203Z,20.50
2022-08-12T00:54:54.491Z,20.50
2022-08-12T00:57:25.452Z,20.40
2022-08-12T00:59:56.683Z,20.40
2022-08-12T01:02:27.680Z,20.40
2022-08-12T01:05:16.275Z,20.30
2022-08-12T01:08:03.395Z,20.30
2022-08-12T01:10:50.049Z,20.20
2022-08-12T01:13:20.592Z,20.10
2022-08-12T01:15:51.903Z,20.00
2022-08-12T01:18:22.785Z,20.00
2022-08-12T01:21:01.143Z,20.00
2022-08-12T01:23:46.022Z,20.00
2022-08-12T01:26:18.941Z,19.90
2022-08-12T01:28:48.696Z,19.90
2022-08-12T01:31:20.819Z,19.80
2022-08-12T01:33:59.767Z,19.80
2022-08-12T01:36:29.189Z,19.80
2022-08-12T01:39:00.036Z,19.80
2022-08-12T01:41:31.915Z,19.70
2022-08-12T01:44:02.322Z,19.70
2022-08-12T01:46:45.022Z,19.70
2022-08-12T01:49:43.871Z,19.70
2022-08-12T01:52:27.245Z,19.70
2022-08-12T01:54:55.547Z,19.60
2022-08-12T01:57:57.191Z,19.50
2022-08-12T02:00:18.966Z,19.50
2022-08-12T02:02:53.223Z,19.50
2022-08-12T02:05:48.900Z,19.40
2022-08-12T02:08:45.544Z,19.40
2022-08-12T02:11:19.839Z,19.30
2022-08-12T02:14:00.164Z,19.30
2022-08-12T02:16:47.607Z,19.30
2022-08-12T02:19:30.231Z,19.30
2022-08-12T02:22:18.838Z,19.20
2022-08-12T02:24:47.864Z,19.20
2022-08-12T02:27:18.471Z,19.20
2022-08-12T02:29:48.183Z,19.20
2022-08-12T02:32:16.336Z,19.20
2022-08-12T02:34:46.066Z,19.10
2022-08-12T02:37:16.394Z,19.10
2022-08-12T02:39:49.634Z,19.10
2022-08-12T02:42:22.154Z,19.10
2022-08-12T02:44:54.144Z,19.10
2022-08-12T02:47:58.585Z,19.10
2022-08-12T02:50:15.457Z,19.10
2022-08-12T02:52:44.075Z,19.00
2022-08-12T02:55:28.713Z,19.00
2022-08-12T02:58:09.231Z,19.10
2022-08-12T03:00:43.248Z,19.10
2022-08-12T03:03:13.681Z,19.00
2022-08-12T03:05:48.590Z,19.10
2022-08-12T03:08:32.751Z,19.10
2022-08-12T03:11:11.696Z,19.00
2022-08-12T03:13:46.548Z,19.00
2022-08-12T03:16:15.832Z,18.90
2022-08-12T03:18:46.087Z,18.90
2022-08-12T03:21:17.538Z,18.80
2022-08-12T03:24:09.198Z,18.80
2022-08-12T03:26:38.264Z,18.80
2022-08-12T03:29:07.902Z,18.70
2022-08-12T03:31:37.241Z,18.70
2022-08-12T03:34:07.567Z,18.70
2022-08-12T03:36:37.886Z,18.70
2022-08-12T03:39:36.057Z,18.60
2022-08-12T03:42:15.213Z,18.60
2022-08-12T03:45:15.109Z,18.60
2022-08-12T03:48:10.646Z,18.50
2022-08-12T03:50:59.727Z,18.50
2022-08-12T03:53:48.349Z,18.40
2022-08-12T03:56:34.363Z,18.40
2022-08-12T03:59:22.812Z,18.30
2022-08-12T04:01:57.534Z,18.30
2022-08-12T04:04:29.458Z,18.30
2022-08-12T04:06:58.845Z,18.30
2022-08-12T04:09:27.367Z,18.40
2022-08-12T04:12:12.745Z,18.30
2022-08-12T04:14:40.812Z,18.40
2022-08-12T04:17:09.492Z,18.40
2022-08-12T04:19:40.644Z,18.40
2022-08-12T04:22:09.871Z,18.40
2022-08-12T04:24:38.032Z,18.40
2022-08-12T04:27:10.298Z,18.30
2022-08-12T04:30:16.476Z,18.40
2022-08-12T04:32:27.934Z,18.40
2022-08-12T04:34:57.334Z,18.40
2022-08-12T04:37:25.331Z,18.40
2022-08-12T04:39:54.003Z,18.40
2022-08-12T04:42:22.202Z,18.50
2022-08-12T04:44:50.239Z,18.50
2022-08-12T04:47:18.522Z,18.50
2022-08-12T04:49:49.193Z,18.50
2022-08-12T04:52:21.706Z,18.50
2022-08-12T04:54:49.840Z,18.60
2022-08-12T04:57:17.725Z,18.60
2022-08-12T04:59:48.503Z,18.60
2022-08-12T05:02:21.241Z,18.60
2022-08-12T05:04:51.522Z,18.60
2022-08-12T05:07:21.033Z,18.70
2022-08-12T05:09:59.226Z,18.70
2022-08-12T05:12:35.770Z,18.80
2022-08-12T05:15:19.258Z,18.90
2022-08-12T05:17:52.854Z,19.00
2022-08-12T05:20:21.943Z,19.00
2022-08-12T05:22:53.119Z,19.10
2022-08-12T05:25:25.155Z,19.20
2022-08-12T05:27:55.311Z,19.30
2022-08-12T05:30:27.378Z,19.30
2022-08-12T05:33:00.234Z,19.40
2022-08-12T05:35:28.581Z,19.50
2022-08-12T05:38:11.823Z,19.50
2022-08-12T05:40:39.773Z,19.60
2022-08-12T05:43:08.138Z,19.70
2022-08-12T05:45:38.248Z,19.80
2022-08-12T05:48:08.492Z,19.90
2022-08-12T05:50:36.624Z,19.90
2022-08-12T05:53:07.035Z,20.00
2022-08-12T05:55:35.083Z,20.10
2022-08-12T05:58:03.201Z,20.10
2022-08-12T06:00:31.902Z,20.20
2022-08-12T06:03:01.840Z,20.30
2022-08-12T06:05:31.022Z,20.40
2022-08-12T06:08:03.049Z,20.40
2022-08-12T06:10:33.433Z,20.50
2022-08-12T06:13:02.493Z,20.60
2022-08-12T06:15:31.615Z,20.60
2022-08-12T06:18:14.110Z,20.70
2022-08-12T06:20:44.717Z,20.70
2022-08-12T06:23:15.258Z,20.80
2022-08-12T06:25:46.435Z,20.90
2022-08-12T06:28:17.704Z,21.00
2022-08-12T06:31:02.688Z,21.00
2022-08-12T06:33:55.315Z,21.10
2022-08-12T06:36:29.454Z,21.20
2022-08-12T06:38:58.271Z,21.20
2022-08-12T06:42:04.987Z,21.30
2022-08-12T06:44:32.988Z,21.40
2022-08-12T06:47:01.096Z,21.50
2022-08-12T06:49:36.326Z,21.50
2022-08-12T06:52:07.392Z,21.60
2022-08-12T06:54:35.438Z,21.70
2022-08-12T06:58:05.773Z,21.80
2022-08-12T06:59:52.952Z,21.90
2022-08-12T07:02:22.695Z,21.90
2022-08-12T07:04:52.611Z,22.00
2022-08-12T07:07:21.083Z,22.10
2022-08-12T07:10:04.131Z,22.20
2022-08-12T07:12:36.851Z,22.20
2022-08-12T07:15:05.757Z,22.30
2022-08-12T07:17:38.675Z,22.40
2022-08-12T07:20:29.866Z,22.50
2022-08-12T07:22:59.736Z,22.70
2022-08-12T07:25:40.691Z,22.80
2022-08-12T07:28:16.860Z,22.90
2022-08-12T07:30:46.743Z,23.00
2022-08-12T07:33:16.738Z,23.10
2022-08-12T07:35:47.765Z,23.20
2022-08-12T07:38:29.019Z,23.30
2022-08-12T07:41:03.058Z,23.50
2022-08-12T07:43:36.436Z,23.60
2022-08-12T07:46:09.026Z,23.70
2022-08-12T07:48:39.465Z,23.90
2022-08-12T07:51:08.437Z,24.00
2022-08-12T07:53:54.831Z,24.20
2022-08-12T07:56:27.413Z,24.30
2022-08-12T07:58:59.269Z,24.50
2022-08-12T08:01:28.404Z,24.70
2022-08-12T08:04:18.714Z,24.80
2022-08-12T08:06:48.015Z,25.00
2022-08-12T08:09:19.252Z,25.10
2022-08-12T08:12:09.861Z,25.20
2022-08-12T08:14:51.943Z,25.40
2022-08-12T08:17:19.927Z,25.50
2022-08-12T08:20:03.741Z,25.70
2022-08-12T08:22:41.907Z,25.80
2022-08-12T08:25:34.402Z,26.00
2022-08-12T08:28:01.110Z,26.10
2022-08-12T08:30:32.333Z,26.30
2022-08-12T08:33:00.562Z,26.50
2022-08-12T08:35:46.254Z,26.50
2022-08-12T08:38:17.633Z,26.70
2022-08-12T08:42:19.028Z,26.80
2022-08-12T08:44:06.308Z,26.90
2022-08-12T08:46:37.899Z,27.00
2022-08-12T08:49:06.574Z,27.10
2022-08-12T08:51:35.242Z,27.30
2022-08-12T08:54:03.365Z,27.40
2022-08-12T08:56:31.399Z,27.50
2022-08-12T08:58:59.802Z,27.60
2022-08-12T09:01:37.287Z,27.80
2022-08-12T09:05:08.166Z,27.90
2022-08-12T09:07:00.196Z,28.00
2022-08-12T09:10:03.428Z,28.20
2022-08-12T09:12:55.034Z,28.50
2022-08-12T09:15:35.301Z,29.00
2022-08-12T09:18:09.066Z,29.80
2022-08-12T09:20:39.844Z,30.80
2022-08-12T09:23:58.696Z,31.80
2022-08-12T09:26:04.375Z,32.70
2022-08-12T09:28:37.309Z,33.70
2022-08-12T09:32:03.866Z,35.30
2022-08-12T09:34:27.410Z,37.80
2022-08-12T09:36:57.640Z,40.70
2022-08-12T09:40:02.544Z,42.60
2022-08-12T09:42:42.739Z,44.00
2022-08-12T09:45:24.070Z,45.00
2022-08-12T09:48:20.161Z,46.40
2022-08-12T09:50:55.001Z,47.70
2022-08-12T09:53:29.210Z,48.70
2022-08-12T09:56:40.158Z,49.50
2022-08-12T09:58:59.790Z,49.00
2022-08-12T10:01:34.676Z,48.70
2022-08-12T10:04:19.691Z,48.40
2022-08-12T10:06:55.512Z,47.90
2022-08-12T10:09:28.792Z,46.80
2022-08-12T10:12:33.338Z,45.80
2022-08-12T10:15:01.779Z,45.00
2022-08-12T10:17:30.112Z,44.10
2022-08-12T10:19:59.787Z,43.70
2022-08-12T10:22:36.884Z,43.50
2022-08-12T10:26:18.449Z,44.20
2022-08-12T10:28:35.879Z,45.60
2022-08-12T10:31:06.566Z,46.70
2022-08-12T10:34:05.097Z,46.20
2022-08-12T10:36:36.120Z,46.80
2022-08-12T10:40:00.244Z,47.60
2022-08-12T10:42:18.337Z,47.70
2022-08-12T10:45:00.883Z,47.80
2022-08-12T10:48:07.133Z,47.50
2022-08-12T10:50:29.529Z,46.50
2022-08-12T10:53:08.978Z,45.50
2022-08-12T10:55:37.498Z,45.60
2022-08-12T10:58:15.211Z,46.30
2022-08-12T11:03:01.490Z,46.50
2022-08-12T11:04:23.368Z,45.50
2022-08-12T11:07:06.104Z,45.50
2022-08-12T11:09:55.926Z,45.40
2022-08-12T11:12:55.585Z,45.90
2022-08-12T11:14:59.276Z,46.50
2022-08-12T11:17:43.711Z,46.70
2022-08-12T11:20:16.281Z,46.50
2022-08-12T11:22:57.625Z,46.00
2022-08-12T11:25:56.446Z,44.90
2022-08-12T11:28:15.024Z,43.20
2022-08-12T11:30:46.060Z,41.70
2022-08-12T11:33:24.354Z,40.70
2022-08-12T11:36:16.099Z,39.80
2022-08-12T11:38:50.753Z,38.70
2022-08-12T11:41:28.099Z,37.50
2022-08-12T11:44:24.075Z,36.50
2022-08-12T11:46:51.464Z,35.70
2022-08-12T11:49:30.613Z,35.10
2022-08-12T11:52:01.940Z,34.50
2022-08-12T11:54:30.975Z,34.10
2022-08-12T11:57:00.506Z,33.90
2022-08-12T12:02:21.444Z,33.40
2022-08-12T12:04:52.159Z,33.00
2022-08-12T12:07:22.502Z,32.80
2022-08-12T12:09:53.386Z,32.70
2022-08-12T12:12:22.980Z,32.60
2022-08-12T12:14:54.650Z,32.50
2022-08-12T12:17:25.678Z,32.40
2022-08-12T12:19:54.018Z,32.30
2022-08-12T12:22:30.802Z,32.10
2022-08-12T12:24:59.124Z,32.00
2022-08-12T12:28:04.646Z,32.00
2022-08-12T12:30:34.624Z,32.00
2022-08-12T12:33:05.266Z,32.00
2022-08-12T12:36:19.904Z,32.00
2022-08-12T12:38:25.355Z,32.00
2022-08-12T12:40:53.568Z,32.10
2022-08-12T12:43:28.719Z,32.00
2022-08-12T12:46:10.711Z,32.00
2022-08-12T12:48:44.228Z,32.20
2022-08-12T12:51:48.248Z,32.20
2022-08-12T12:54:09.966Z,32.30
2022-08-12T12:56:42.290Z,32.40
2022-08-12T12:59:56.216Z,32.50
2022-08-12T13:02:08.237Z,32.50
2022-08-12T13:04:38.425Z,32.50
2022-08-12T13:07:08.061Z,32.80
2022-08-12T13:09:36.881Z,32.80
2022-08-12T13:12:08.789Z,32.70
2022-08-12T13:14:39.855Z,32.70
2022-08-12T13:17:09.560Z,32.70
2022-08-12T13:19:45.341Z,32.90
2022-08-12T13:22:18.448Z,33.10
2022-08-12T13:24:46.961Z,33.20
2022-08-12T13:27:22.824Z,33.30
2022-08-12T13:30:00.854Z,33.30
2022-08-12T13:32:31.890Z,33.30
2022-08-12T13:35:04.683Z,33.50
2022-08-12T13:37:55.073Z,33.80
2022-08-12T13:40:24.874Z,34.00
2022-08-12T13:42:57.727Z,34.00
2022-08-12T13:45:26.036Z,34.10
2022-08-12T13:47:56.308Z,34.00
2022-08-12T13:50:31.901Z,34.00
2022-08-12T13:53:01.305Z,34.20
2022-08-12T13:55:59.576Z,34.30
2022-08-12T13:58:30.658Z,34.30
2022-08-12T14:00:59.480Z,34.30
2022-08-12T14:03:28.224Z,34.40
2022-08-12T14:06:07.055Z,34.70
2022-08-12T14:08:35.243Z,34.80
2022-08-12T14:11:05.050Z,34.80
2022-08-12T14:14:04.633Z,34.90
2022-08-12T14:16:37.946Z,34.90
2022-08-12T14:19:22.510Z,35.00
2022-08-12T14:22:00.974Z,35.10
2022-08-12T14:24:35.567Z,35.30
2022-08-12T14:27:09.069Z,35.40
2022-08-12T14:30:04.824Z,35.60
2022-08-12T14:32:35.222Z,35.60
2022-08-12T14:35:08.951Z,35.70
2022-08-12T14:37:55.471Z,35.90
2022-08-12T14:40:27.723Z,36.00
2022-08-12T14:42:57.283Z,36.00
2022-08-12T14:45:44.368Z,36.10
2022-08-12T14:48:15.122Z,36.10
2022-08-12T14:51:09.448Z,36.10
2022-08-12T14:59:56.974Z,35.60
2022-08-12T15:02:20.899Z,35.30
2022-08-12T15:04:55.970Z,35.30
2022-08-12T15:07:33.474Z,35.30
2022-08-12T15:10:14.641Z,35.40
2022-08-12T15:12:53.485Z,35.50
2022-08-12T15:15:22.512Z,35.50
2022-08-12T15:17:59.171Z,35.50
2022-08-12T15:20:32.907Z,35.40
2022-08-12T15:23:17.882Z,35.50
2022-08-12T15:26:02.456Z,35.50
2022-08-12T15:28:33.437Z,35.50
2022-08-12T15:31:02.212Z,35.40
2022-08-12T15:33:45.042Z,35.30
2022-08-12T15:36:19.447Z,35.30
2022-08-12T15:39:03.139Z,35.20
2022-08-12T15:41:49.119Z,35.00
2022-08-12T15:44:42.196Z,34.90
2022-08-12T15:47:07.581Z,34.90
2022-08-12T15:49:54.292Z,34.80
2022-08-12T15:52:28.083Z,34.70
2022-08-12T15:54:58.760Z,34.70
2022-08-12T15:57:28.445Z,34.70
2022-08-12T16:00:07.517Z,34.70
2022-08-12T16:02:49.461Z,34.70
2022-08-12T16:06:19.395Z,34.70
2022-08-12T16:08:13.265Z,34.70
2022-08-12T16:10:45.689Z,34.70
2022-08-12T16:13:18.077Z,34.40
2022-08-12T16:16:02.531Z,34.30
2022-08-12T16:18:33.291Z,34.10
2022-08-12T16:21:02.031Z,34.00
2022-08-12T16:23:52.139Z,33.90
2022-08-12T16:26:27.624Z,33.80
2022-08-12T16:29:14.536Z,33.70
2022-08-12T16:31:44.136Z,33.60
2022-08-12T16:34:25.692Z,33.50
2022-08-12T16:37:07.399Z,33.40
2022-08-12T16:40:00.678Z,33.20
2022-08-12T16:42:27.855Z,33.10
2022-08-12T16:44:59.420Z,33.00
2022-08-12T16:47:28.066Z,32.90
2022-08-12T16:49:57.698Z,32.90
2022-08-12T16:52:25.750Z,32.80
2022-08-12T16:54:55.116Z,32.80
2022-08-12T16:57:35.694Z,32.70
2022-08-12T17:00:11.789Z,32.50
2022-08-12T17:02:41.235Z,32.30
2022-08-12T17:05:16.136Z,32.20
2022-08-12T17:07:52.042Z,32.10
2022-08-12T17:10:36.292Z,32.00
2022-08-12T17:13:09.957Z,32.00
2022-08-12T17:15:56.810Z,31.90
2022-08-12T17:18:43.219Z,31.80
2022-08-12T17:21:17.311Z,31.60
2022-08-12T17:23:53.431Z,31.50
2022-08-12T17:26:22.890Z,31.50
2022-08-12T17:28:59.096Z,31.40
2022-08-12T17:32:00.245Z,31.30
2022-08-12T17:34:33.401Z,31.30
2022-08-12T17:37:02.759Z,31.20
2022-08-12T17:40:10.782Z,31.10
2022-08-12T17:42:32.840Z,31.00
2022-08-12T17:45:16.930Z,31.00
2022-08-12T17:48:01.482Z,30.90
2022-08-12T17:50:33.298Z,30.80
2022-08-12T17:53:02.725Z,30.70
2022-08-12T17:55:44.792Z,30.60
2022-08-12T17:58:18.363Z,30.60
2022-08-12T18:00:50.769Z,30.50
2022-08-12T18:04:05.787Z,30.40
2022-08-12T18:06:14.523Z,30.30
2022-08-12T18:08:54.990Z,30.20
2022-08-12T18:12:06.374Z,30.10
2022-08-12T18:14:30.163Z,30.10
2022-08-12T18:17:01.050Z,30.00
2022-08-12T18:20:03.701Z,29.90
2022-08-12T18:22:22.266Z,29.80
2022-08-12T18:26:12.891Z,29.70
2022-08-12T18:28:16.059Z,29.60
2022-08-12T18:30:52.965Z,29.50
2022-08-12T18:33:24.955Z,29.40
2022-08-12T18:35:57.053Z,29.30
2022-08-12T18:38:26.246Z,29.20
2022-08-12T18:41:20.796Z,29.10
2022-08-12T18:44:00.304Z,29.10
2022-08-12T18:46:45.798Z,28.90
2022-08-12T18:49:20.654Z,28.80
2022-08-12T18:51:55.086Z,28.70
2022-08-12T18:54:32.383Z,28.60
2022-08-12T18:57:03.790Z,28.50
2022-08-12T19:00:01.924Z,28.50
2022-08-12T19:02:25.594Z,28.40
2022-08-12T19:04:54.226Z,28.30
2022-08-12T19:07:29.903Z,28.20
2022-08-12T19:10:14.799Z,28.10
2022-08-12T19:13:10.474Z,28.00
2022-08-12T19:15:42.998Z,27.90
2022-08-12T19:18:12.457Z,27.80
2022-08-12T19:20:41.758Z,27.70
2022-08-12T19:23:16.674Z,27.60
2022-08-12T19:25:59.749Z,27.50
2022-08-12T19:28:35.587Z,27.50
2022-08-12T19:31:57.241Z,27.40
2022-08-12T19:37:26.685Z,27.20
2022-08-12T19:40:09.686Z,27.10
2022-08-12T19:43:00.655Z,27.00
2022-08-12T19:45:43.854Z,27.00
2022-08-12T19:48:18.718Z,26.90
2022-08-12T19:50:50.339Z,26.80
2022-08-12T19:53:23.059Z,26.80
2022-08-12T19:55:55.152Z,26.70
2022-08-12T19:58:24.097Z,26.70
2022-08-12T20:00:54.855Z,26.60
2022-08-12T20:03:38.794Z,26.50
2022-08-12T20:06:15.813Z,26.40
2022-08-12T20:08:55.894Z,26.30
2022-08-12T20:12:11.083Z,26.30
2022-08-12T20:14:18.933Z,26.20
2022-08-12T20:16:52.959Z,26.10
2022-08-12T20:19:52.249Z,26.00
2022-08-12T20:22:24.292Z,26.00
2022-08-12T20:25:01.570Z,25.90
2022-08-12T20:28:04.140Z,25.80
2022-08-12T20:30:52.333Z,25.80
2022-08-12T20:33:19.176Z,25.70
2022-08-12T20:36:06.408Z,25.70
2022-08-12T20:38:42.130Z,25.60
2022-08-12T20:41:16.558Z,25.60
2022-08-12T20:43:50.320Z,25.50
2022-08-12T20:46:19.388Z,25.40
2022-08-12T20:48:54.901Z,25.40
2022-08-12T20:51:27.686Z,25.30
2022-08-12T20:53:59.285Z,25.30
2022-08-12T20:56:34.565Z,25.20
2022-08-12T20:59:06.672Z,25.20
2022-08-12T21:01:46.902Z,25.10
2022-08-12T21:04:35.270Z,25.00
2022-08-12T21:07:08.415Z,25.00
2022-08-12T21:09:40.924Z,24.90
2022-08-12T21:12:28.783Z,24.90
2022-08-12T21:15:23.354Z,24.80
2022-08-12T21:18:09.297Z,24.80
2022-08-12T21:20:42.081Z,24.70
2022-08-12T21:23:10.017Z,24.70
2022-08-12T21:25:45.599Z,24.70
2022-08-12T21:28:15.561Z,24.70
2022-08-12T21:31:11.262Z,24.60
2022-08-12T21:33:58.359Z,24.50
2022-08-12T21:36:32.090Z,24.50
2022-08-12T21:39:01.381Z,24.60
2022-08-12T21:41:51.022Z,24.50
2022-08-12T21:44:24.324Z,24.40
2022-08-12T21:47:20.530Z,24.40
2022-08-12T21:50:02.284Z,24.30
2022-08-12T21:52:34.990Z,24.20
2022-08-12T21:55:18.861Z,24.20
2022-08-12T21:57:54.025Z,24.10
2022-08-12T22:00:34.234Z,24.00
2022-08-12T22:04:01.365Z,24.00
2022-08-12T22:06:30.427Z,24.00
2022-08-12T22:09:15.976Z,23.90
2022-08-12T22:11:49.278Z,23.80
2022-08-12T22:14:28.909Z,23.80
2022-08-12T22:16:58.099Z,23.70
2022-08-12T22:19:27.434Z,23.70
2022-08-12T22:21:58.784Z,23.70
2022-08-12T22:24:31.944Z,23.60
2022-08-12T22:27:07.946Z,23.60
2022-08-12T22:30:03.695Z,23.60
2022-08-12T22:32:31.630Z,23.50
2022-08-12T22:35:22.279Z,23.50
2022-08-12T22:37:53.446Z,23.50
2022-08-12T22:40:24.075Z,23.40
2022-08-12T22:43:15.399Z,23.40
2022-08-12T22:46:01.481Z,23.30
2022-08-12T22:48:30.677Z,23.20
2022-08-12T22:51:00.231Z,23.20
2022-08-12T22:53:35.892Z,23.10
2022-08-12T22:56:07.935Z,23.10
2022-08-12T22:58:40.489Z,23.00
2022-08-12T23:01:10.905Z,22.90
2022-08-12T23:03:48.115Z,22.90
2022-08-12T23:06:20.168Z,22.90
2022-08-12T23:08:49.817Z,22.80
2022-08-12T23:11:23.724Z,22.80
2022-08-12T23:13:57.093Z,22.80
2022-08-12T23:16:31.802Z,22.80
2022-08-12T23:19:09.872Z,22.70
2022-08-12T23:22:05.322Z,22.70
2022-08-12T23:24:41.069Z,22.70
2022-08-12T23:27:51.159Z,22.70
2022-08-12T23:30:24.796Z,22.60
2022-08-12T23:33:00.613Z,22.60
2022-08-12T23:35:53.752Z,22.50
2022-08-12T23:38:30.509Z,22.50
2022-08-12T23:40:59.679Z,22.50
2022-08-12T23:43:39.207Z,22.40
2022-08-12T23:46:09.232Z,22.40
2022-08-12T23:48:37.580Z,22.40
2022-08-12T23:51:21.616Z,22.30
2022-08-12T23:53:55.278Z,22.30
2022-08-12T23:56:24.634Z,22.20
2022-08-12T23:58:57.606Z,22.20
